Time;durP1;ratioP1;P1;durP2;ratioP2;P2;SDS_P1;SDS_P2;PMS_P1;PMS_P2;Temp;Humidity;BMP_temperature;BMP_pressure;BME280_temperature;BME280_humidity;BME280_pressure;Samples;Min_cycle;Max_cycle;Signal;HPM_P1;HPM_P2
2023/05/30 00:00:14;;;;;;;;;;;;;;;19.94;59.22;99819.34;4346149;32;33965;-91
2023/05/30 00:02:43;;;;;;;;;;;;;;;19.93;59.18;99818.47;4324348;32;32319;-90
2023/05/30 00:05:12;;;;;;;;;;;;;;;19.90;59.46;99815.22;4350133;32;33890;-91
2023/05/30 00:07:40;;;;;;;;;;;;;;;19.98;59.15;99809.19;4343458;32;32613;-91
2023/05/30 00:10:08;;;;;;;;;;;;;;;19.98;59.06;99812.72;4337710;32;33447;-91
2023/05/30 00:12:35;;;;;;;;;;;;;;;19.92;59.14;99815.91;4337256;32;32972;-90
2023/05/30 00:15:03;;;;;;;;;;;;;;;20.04;58.69;99809.56;4347672;32;34407;-92
2023/05/30 00:17:32;;;;;;;;;;;;;;;19.94;58.76;99808.63;4350221;32;33467;-91
2023/05/30 00:20:00;;;;;;;;;;;;;;;20.03;58.43;99813.19;4349450;32;34423;-90
2023/05/30 00:22:29;;;;;;;;;;;;;;;19.99;58.32;99806.41;4337702;32;31279;-90
2023/05/30 00:24:59;;;;;;;;;;;;;;;20.10;57.83;99805.50;4335045;32;34220;-90
2023/05/30 00:27:27;;;;;;;;;;;;;;;20.11;57.32;99810.75;4337822;32;34517;-90
2023/05/30 00:29:55;;;;;;;;;;;;;;;19.97;58.06;99807.50;4347162;32;33418;-90
2023/05/30 00:32:22;;;;;;;;;;;;;;;19.94;58.49;99808.63;4337441;32;32896;-90
2023/05/30 00:34:50;;;;;;;;;;;;;;;19.93;58.48;99813.09;4336607;32;32998;-90
2023/05/30 00:37:17;;;;;;;;;;;;;;;19.98;58.18;99802.00;4339962;32;34353;-90
2023/05/30 00:39:46;;;;;;;;;;;;;;;19.92;58.36;99799.84;4331851;33;33399;-90
2023/05/30 00:42:13;;;;;;;;;;;;;;;19.88;58.62;99798.38;4340612;32;32429;-90
2023/05/30 00:44:41;;;;;;;;;;;;;;;20.03;58.06;99798.94;4337878;32;33786;-90
2023/05/30 00:47:08;;;;;;;;;;;;;;;20.20;57.51;99801.94;4337892;32;33082;-90
2023/05/30 00:49:36;;;;;;;;;;;;;;;20.10;58.00;99798.31;4336561;32;33486;-90
2023/05/30 00:52:03;;;;;;;;;;;;;;;19.93;58.75;99799.69;4322989;32;32700;-90
2023/05/30 00:54:32;;;;;;;;;;;;;;;19.98;58.73;99796.66;4349571;32;32959;-89
2023/05/30 00:56:59;;;;;;;;;;;;;;;20.24;57.76;99799.00;4348380;32;33942;-90
2023/05/30 00:59:27;;;;;;;;;;;;;;;19.95;58.67;99799.59;4336605;32;33894;-90
2023/05/30 01:01:56;;;;;;;;;;;;;;;19.99;58.75;99801.06;4336762;32;32412;-90
2023/05/30 01:04:24;;;;;;;;;;;;;;;20.27;58.00;99804.09;4348132;32;33829;-90
2023/05/30 01:06:51;;;;;;;;;;;;;;;20.05;58.78;99811.25;4337203;32;33348;-90
2023/05/30 01:09:19;;;;;;;;;;;;;;;19.86;58.96;99805.72;4335857;32;32916;-89
2023/05/30 01:11:59;;;;;;;;;;;;;;;20.00;58.52;99807.25;4349049;32;33524;-90
2023/05/30 01:14:43;;;;;;;;;;;;;;;19.99;58.37;99810.87;4342413;32;33960;-89
2023/05/30 01:17:16;;;;;;;;;;;;;;;20.15;57.75;99809.50;4333534;32;33914;-89
2023/05/30 01:19:46;;;;;;;;;;;;;;;20.09;57.90;99812.72;4345444;32;36152;-89
2023/05/30 01:22:16;;;;;;;;;;;;;;;20.10;57.66;99803.69;4353108;32;33211;-89
2023/05/30 01:24:45;;;;;;;;;;;;;;;20.09;57.49;99810.03;4327776;32;32295;-88
2023/05/30 01:27:26;;;;;;;;;;;;;;;20.11;57.78;99810.75;4337745;32;33832;-88
2023/05/30 01:29:55;;;;;;;;;;;;;;;20.26;57.24;99811.28;4345292;32;34975;-88
2023/05/30 01:32:23;;;;;;;;;;;;;;;20.23;57.38;99805.34;4337111;32;33422;-89
2023/05/30 01:34:50;;;;;;;;;;;;;;;20.23;57.51;99802.66;4335074;32;34348;-88
2023/05/30 01:37:18;;;;;;;;;;;;;;;20.19;57.40;99804.75;4349192;32;34266;-88
2023/05/30 01:39:45;;;;;;;;;;;;;;;20.19;57.47;99802.91;4348076;32;34515;-88
2023/05/30 01:42:15;;;;;;;;;;;;;;;20.27;57.50;99796.03;4348358;32;32810;-87
2023/05/30 01:45:04;;;;;;;;;;;;;;;20.26;57.47;99805.06;4346240;32;32917;-87
2023/05/30 01:47:39;;;;;;;;;;;;;;;20.29;57.47;99799.47;4345310;32;33531;-87
2023/05/30 01:50:14;;;;;;;;;;;;;;;20.32;57.22;99799.19;4345744;32;34538;-87
2023/05/30 01:52:43;;;;;;;;;;;;;;;20.38;57.10;99801.38;4319481;32;31992;-88
2023/05/30 01:55:11;;;;;;;;;;;;;;;20.55;56.38;99792.75;4337666;32;32936;-88
2023/05/30 01:57:40;;;;;;;;;;;;;;;20.58;56.30;99797.88;4337463;32;33482;-88
2023/05/30 02:00:07;;;;;;;;;;;;;;;20.34;56.82;99802.59;4337202;32;33540;-89
2023/05/30 02:02:38;;;;;;;;;;;;;;;20.35;56.90;99802.47;4336664;32;32824;-89
2023/05/30 02:05:06;;;;;;;;;;;;;;;20.26;57.34;99797.03;4344512;32;33348;-89
2023/05/30 02:07:34;;;;;;;;;;;;;;;20.18;57.77;99792.31;4337082;32;33981;-89
2023/05/30 02:10:02;;;;;;;;;;;;;;;20.21;57.60;99795.56;4340226;32;33425;-89
2023/05/30 02:12:33;;;;;;;;;;;;;;;20.20;57.83;99799.25;4340083;32;32106;-87
2023/05/30 02:15:02;;;;;;;;;;;;;;;20.19;57.91;99797.56;4341402;32;32994;-88
2023/05/30 02:17:31;;;;;;;;;;;;;;;20.27;57.72;99798.72;4336568;32;34172;-87
2023/05/30 02:19:59;;;;;;;;;;;;;;;20.41;56.99;99804.66;4344492;32;34409;-86
2023/05/30 02:22:34;;;;;;;;;;;;;;;20.20;57.75;99801.94;4336908;32;33810;-87
2023/05/30 02:25:02;;;;;;;;;;;;;;;20.16;57.92;99802.31;4337330;32;32744;-86
2023/05/30 02:27:29;;;;;;;;;;;;;;;20.03;58.10;99805.16;4337424;32;33198;-90
2023/05/30 02:29:57;;;;;;;;;;;;;;;19.94;58.49;99798.75;4336792;32;33158;-89
2023/05/30 02:32:25;;;;;;;;;;;;;;;20.01;58.60;99801.75;4349350;32;34031;-89
2023/05/30 02:34:52;;;;;;;;;;;;;;;19.99;58.69;99795.69;4349123;32;33393;-89
2023/05/30 02:37:19;;;;;;;;;;;;;;;19.87;58.80;99791.34;4336655;32;33312;-89
2023/05/30 02:39:47;;;;;;;;;;;;;;;20.01;58.74;99791.03;4336806;32;33589;-89
2023/05/30 02:42:14;;;;;;;;;;;;;;;20.15;58.08;99790.75;4348616;32;34081;-89
2023/05/30 02:44:42;;;;;;;;;;;;;;;20.16;57.88;99788.91;4347660;32;34659;-90
2023/05/30 02:47:10;;;;;;;;;;;;;;;19.87;58.91;99781.47;4335988;32;32928;-90
2023/05/30 02:49:37;;;;;;;;;;;;;;;20.11;58.15;99781.25;4348910;32;34159;-89
2023/05/30 02:52:05;;;;;;;;;;;;;;;20.08;58.16;99781.53;4334599;32;32114;-89
2023/05/30 02:54:38;;;;;;;;;;;;;;;19.99;58.44;99779.59;4349151;32;33963;-89
2023/05/30 02:57:06;;;;;;;;;;;;;;;20.01;58.22;99783.00;4337180;32;33201;-89
2023/05/30 02:59:35;;;;;;;;;;;;;;;19.88;58.93;99782.31;4337002;32;33310;-90
2023/05/30 03:02:03;;;;;;;;;;;;;;;19.92;58.72;99786.44;4348720;32;31911;-89
2023/05/30 03:04:30;;;;;;;;;;;;;;;19.94;58.70;99790.72;4335918;32;32685;-89
2023/05/30 03:06:59;;;;;;;;;;;;;;;20.01;58.37;99793.72;4334407;32;34466;-89
2023/05/30 03:09:26;;;;;;;;;;;;;;;19.97;58.19;99792.28;4353299;32;33850;-90
2023/05/30 03:11:54;;;;;;;;;;;;;;;19.92;58.37;99794.47;4335255;32;33166;-89
2023/05/30 03:14:21;;;;;;;;;;;;;;;19.92;58.21;99794.47;4335548;32;33377;-90
2023/05/30 03:16:49;;;;;;;;;;;;;;;20.02;58.10;99798.09;4323414;32;33114;-89
2023/05/30 03:19:16;;;;;;;;;;;;;;;20.12;57.46;99801.72;4347925;32;34815;-89
2023/05/30 03:21:45;;;;;;;;;;;;;;;19.95;58.08;99810.31;4346271;32;33737;-90
2023/05/30 03:24:13;;;;;;;;;;;;;;;19.87;58.81;99807.41;4350507;32;34186;-89
2023/05/30 03:26:41;;;;;;;;;;;;;;;19.93;59.00;99804.22;4349707;32;33871;-89
2023/05/30 03:29:09;;;;;;;;;;;;;;;19.90;59.15;99807.16;4336861;32;32858;-88
2023/05/30 03:31:37;;;;;;;;;;;;;;;19.91;59.21;99808.88;4337331;32;32369;-89
2023/05/30 03:34:04;;;;;;;;;;;;;;;20.05;58.63;99811.25;4337780;32;32955;-88
2023/05/30 03:36:33;;;;;;;;;;;;;;;19.93;59.25;99812.25;4346578;32;34661;-88
2023/05/30 03:39:00;;;;;;;;;;;;;;;20.04;58.88;99814.06;4338087;32;32981;-88
2023/05/30 03:41:28;;;;;;;;;;;;;;;20.18;58.24;99814.62;4350339;32;33070;-88
2023/05/30 03:43:56;;;;;;;;;;;;;;;20.29;57.98;99816.41;4338100;32;32874;-88
2023/05/30 03:46:23;;;;;;;;;;;;;;;20.44;57.57;99820.47;4338362;32;33255;-90
2023/05/30 03:48:51;;;;;;;;;;;;;;;20.41;57.72;99822.53;4350712;32;34391;-90
2023/05/30 03:51:22;;;;;;;;;;;;;;;20.43;58.33;99820.59;4336601;32;32861;-90
2023/05/30 03:53:50;;;;;;;;;;;;;;;20.18;59.56;99822.66;4333429;32;33085;-90
2023/05/30 03:56:20;;;;;;;;;;;;;;;20.10;59.88;99825.13;4338498;32;34041;-90
2023/05/30 03:58:47;;;;;;;;;;;;;;;20.33;59.48;99827.72;4350714;32;34293;-90
2023/05/30 04:01:15;;;;;;;;;;;;;;;20.46;59.17;99821.22;4338438;32;33025;-91
2023/05/30 04:03:43;;;;;;;;;;;;;;;20.39;59.20;99832.56;4350949;32;34136;-90
2023/05/30 04:06:11;;;;;;;;;;;;;;;20.40;58.80;99828.91;4335119;32;33493;-90
2023/05/30 04:08:40;;;;;;;;;;;;;;;20.52;58.39;99827.06;4346836;32;34969;-88
2023/05/30 04:11:08;;;;;;;;;;;;;;;20.46;58.55;99823.88;4337224;32;32809;-89
2023/05/30 04:13:35;;;;;;;;;;;;;;;20.46;58.45;99828.38;4335050;32;34915;-89
2023/05/30 04:16:03;;;;;;;;;;;;;;;20.75;57.60;99830.44;4348660;32;35124;-89
2023/05/30 04:18:31;;;;;;;;;;;;;;;20.87;57.01;99832.09;4350123;32;34000;-89
2023/05/30 04:20:58;;;;;;;;;;;;;;;20.92;56.53;99843.28;4347602;32;33207;-88
2023/05/30 04:23:26;;;;;;;;;;;;;;;20.76;57.24;99841.06;4349725;32;34752;-89
2023/05/30 04:25:57;;;;;;;;;;;;;;;20.75;57.55;99847.44;4334192;32;34328;-88
2023/05/30 04:28:27;;;;;;;;;;;;;;;20.83;57.73;99846.75;4350267;32;34278;-89
2023/05/30 04:30:56;;;;;;;;;;;;;;;20.83;58.00;99841.37;4337376;32;33298;-89
2023/05/30 04:33:39;;;;;;;;;;;;;;;20.89;57.71;99848.94;4337046;32;33417;-89
2023/05/30 04:36:10;;;;;;;;;;;;;;;21.14;57.43;99845.81;4336357;32;33735;-90
2023/05/30 04:38:38;;;;;;;;;;;;;;;21.12;57.41;99844.22;4350005;32;34514;-90
2023/05/30 04:41:06;;;;;;;;;;;;;;;21.31;56.67;99854.25;4348494;32;33242;-89
2023/05/30 04:43:34;;;;;;;;;;;;;;;21.27;56.63;99850.09;4352691;32;33569;-90
2023/05/30 04:46:04;;;;;;;;;;;;;;;21.46;55.90;99858.31;4336910;32;34179;-90
2023/05/30 04:48:38;;;;;;;;;;;;;;;21.52;55.43;99857.75;4343071;32;33325;-90
2023/05/30 04:51:08;;;;;;;;;;;;;;;21.53;55.80;99859.44;4329912;32;32931;-90
2023/05/30 04:53:35;;;;;;;;;;;;;;;21.24;56.18;99864.66;4327072;32;32891;-90
2023/05/30 04:56:03;;;;;;;;;;;;;;;21.09;56.89;99861.47;4336686;32;33312;-90
2023/05/30 04:58:31;;;;;;;;;;;;;;;21.14;56.95;99853.88;4336704;32;33207;-88
2023/05/30 05:00:59;;;;;;;;;;;;;;;21.22;56.88;99856.75;4327732;32;32390;-89
2023/05/30 05:03:26;;;;;;;;;;;;;;;21.26;56.36;99857.31;4343736;32;34696;-87
2023/05/30 05:05:54;;;;;;;;;;;;;;;21.38;56.45;99866.19;4348908;32;33070;-89
2023/05/30 05:08:22;;;;;;;;;;;;;;;21.41;56.88;99860.50;4335841;32;33548;-89
2023/05/30 05:10:49;;;;;;;;;;;;;;;21.58;56.22;99862.56;4333679;32;31450;-89
2023/05/30 05:13:17;;;;;;;;;;;;;;;21.71;56.22;99863.19;4331824;32;33263;-89
2023/05/30 05:15:45;;;;;;;;;;;;;;;21.79;55.37;99867.91;4337359;32;32774;-89
2023/05/30 05:18:12;;;;;;;;;;;;;;;21.76;55.99;99865.47;4324965;32;35967;-89
2023/05/30 05:20:51;;;;;;;;;;;;;;;21.98;54.62;99859.00;4336876;32;32349;-89
2023/05/30 05:23:19;;;;;;;;;;;;;;;22.04;54.12;99869.22;4338041;32;34316;-89
2023/05/30 05:25:46;;;;;;;;;;;;;;;22.14;52.91;99870.13;4328575;32;33238;-88
2023/05/30 05:28:14;;;;;;;;;;;;;;;22.09;54.07;99869.66;4337433;32;33686;-89
2023/05/30 05:30:42;;;;;;;;;;;;;;;22.07;53.41;99871.63;4339324;32;32930;-91
2023/05/30 05:33:09;;;;;;;;;;;;;;;21.85;53.85;99874.56;4341827;32;32924;-90
2023/05/30 05:35:37;;;;;;;;;;;;;;;21.93;54.04;99878.25;4335322;32;32661;-90
2023/05/30 05:38:05;;;;;;;;;;;;;;;21.87;53.66;99877.94;4321457;32;33102;-90
2023/05/30 05:40:32;;;;;;;;;;;;;;;21.99;53.24;99876.84;4346961;32;33459;-90
2023/05/30 05:43:01;;;;;;;;;;;;;;;21.90;54.40;99883.91;4340029;32;32575;-88
2023/05/30 05:45:28;;;;;;;;;;;;;;;22.06;53.71;99878.00;4343665;32;34533;-90
2023/05/30 05:47:56;;;;;;;;;;;;;;;22.11;53.13;99875.75;4348557;32;33203;-87
2023/05/30 05:50:23;;;;;;;;;;;;;;;22.18;53.10;99878.75;4348241;32;32818;-88
2023/05/30 05:52:51;;;;;;;;;;;;;;;22.02;52.56;99879.25;4335755;32;32925;-89
2023/05/30 05:55:18;;;;;;;;;;;;;;;22.16;51.90;99884.25;4347176;32;34407;-90
2023/05/30 05:57:46;;;;;;;;;;;;;;;22.21;52.07;99882.00;4343734;32;35572;-89
2023/05/30 06:00:15;;;;;;;;;;;;;;;22.44;51.97;99893.34;4342696;32;32406;-89
2023/05/30 06:02:43;;;;;;;;;;;;;;;22.42;51.78;99883.75;4357590;32;33639;-89
2023/05/30 06:05:11;;;;;;;;;;;;;;;22.86;50.70;99881.47;4345320;32;34290;-89
2023/05/30 06:07:41;;;;;;;;;;;;;;;22.73;50.79;99882.59;4352111;32;33037;-89
2023/05/30 06:10:09;;;;;;;;;;;;;;;22.74;50.43;99884.31;4345968;32;33508;-89
2023/05/30 06:12:37;;;;;;;;;;;;;;;23.01;49.85;99888.13;4322201;32;32940;-89
2023/05/30 06:15:05;;;;;;;;;;;;;;;23.19;48.10;99888.22;4340738;32;34166;-90
2023/05/30 06:17:33;;;;;;;;;;;;;;;23.23;48.83;99895.03;4344178;32;33440;-88
2023/05/30 06:20:01;;;;;;;;;;;;;;;23.36;48.97;99900.94;4343904;32;33634;-88
2023/05/30 06:22:29;;;;;;;;;;;;;;;23.34;46.54;99902.09;4348478;32;34623;-89
2023/05/30 06:24:57;;;;;;;;;;;;;;;22.73;47.13;99904.13;4325013;32;33329;-89
2023/05/30 06:27:24;;;;;;;;;;;;;;;23.07;46.48;99906.38;4325316;32;34025;-89
2023/05/30 06:29:54;;;;;;;;;;;;;;;23.38;47.12;99898.09;4337735;32;32842;-88
2023/05/30 06:32:22;;;;;;;;;;;;;;;23.47;46.69;99899.91;4345725;32;33383;-88
2023/05/30 06:34:49;;;;;;;;;;;;;;;23.87;45.20;99899.63;4335166;32;33211;-88
2023/05/30 06:37:18;;;;;;;;;;;;;;;23.52;45.41;99901.16;4333708;32;33567;-89
2023/05/30 06:39:46;;;;;;;;;;;;;;;23.56;45.89;99903.59;4351873;32;34245;-90
2023/05/30 06:42:13;;;;;;;;;;;;;;;23.72;45.48;99909.22;4334782;32;34126;-90
2023/05/30 06:44:42;;;;;;;;;;;;;;;23.71;45.05;99905.66;4345992;32;34002;-91
2023/05/30 06:47:10;;;;;;;;;;;;;;;24.17;44.82;99911.97;4335136;32;33682;-92
2023/05/30 06:49:37;;;;;;;;;;;;;;;24.16;44.75;99910.25;4333495;32;32641;-91
2023/05/30 06:52:05;;;;;;;;;;;;;;;24.23;43.87;99905.94;4343227;32;34738;-90
2023/05/30 06:54:33;;;;;;;;;;;;;;;24.23;42.76;99905.94;4335329;32;32339;-90
2023/05/30 06:57:03;;;;;;;;;;;;;;;24.22;43.82;99906.97;4335204;32;33142;-90
2023/05/30 06:59:33;;;;;;;;;;;;;;;24.29;43.79;99909.87;4349914;32;32631;-90
2023/05/30 07:02:01;;;;;;;;;;;;;;;24.40;43.66;99922.34;4320934;32;929303;-90
2023/05/30 07:04:29;;;;;;;;;;;;;;;24.16;43.05;99912.94;4346077;32;33309;-90
2023/05/30 07:06:57;;;;;;;;;;;;;;;24.35;43.49;99916.50;4350657;32;35079;-90
2023/05/30 07:09:26;;;;;;;;;;;;;;;24.44;42.81;99926.44;4337723;32;32507;-90
2023/05/30 07:11:53;;;;;;;;;;;;;;;24.53;42.06;99922.81;4336206;32;33194;-90
2023/05/30 07:14:21;;;;;;;;;;;;;;;24.70;42.56;99919.28;4347972;32;32589;-90
2023/05/30 07:16:49;;;;;;;;;;;;;;;24.99;41.29;99927.13;4338142;32;34400;-90
2023/05/30 07:19:16;;;;;;;;;;;;;;;24.92;41.86;99920.62;4347687;32;33207;-91
2023/05/30 07:21:44;;;;;;;;;;;;;;;25.23;42.17;99921.06;4337969;32;32978;-90
2023/05/30 07:24:12;;;;;;;;;;;;;;;25.14;40.55;99918.47;4335670;32;33325;-90
2023/05/30 07:26:39;;;;;;;;;;;;;;;25.55;40.65;99916.91;4350142;32;35128;-90
2023/05/30 07:29:07;;;;;;;;;;;;;;;25.47;40.08;99927.66;4350442;32;32805;-90
2023/05/30 07:31:34;;;;;;;;;;;;;;;24.93;40.05;99921.50;4336226;32;32647;-91
2023/05/30 07:34:02;;;;;;;;;;;;;;;25.49;39.53;99912.97;4333203;32;33592;-90
2023/05/30 07:36:30;;;;;;;;;;;;;;;25.28;40.98;99918.75;4335597;32;33242;-89
2023/05/30 07:38:58;;;;;;;;;;;;;;;25.25;41.90;99929.88;4337598;32;32477;-90
2023/05/30 07:41:26;;;;;;;;;;;;;;;25.52;40.43;99914.50;4345968;32;33627;-91
2023/05/30 07:43:53;;;;;;;;;;;;;;;25.57;41.66;99916.72;4348140;32;34045;-90
2023/05/30 07:46:22;;;;;;;;;;;;;;;25.44;41.48;99918.00;4333971;32;32722;-90
2023/05/30 07:48:50;;;;;;;;;;;;;;;25.50;40.33;99917.37;4336366;32;32341;-90
2023/05/30 07:51:19;;;;;;;;;;;;;;;25.56;40.70;99923.16;4347287;32;33721;-90
2023/05/30 07:53:47;;;;;;;;;;;;;;;25.53;40.44;99919.75;4349320;32;35406;-90
2023/05/30 07:56:14;;;;;;;;;;;;;;;25.53;40.89;99927.00;4335913;32;33107;-90
2023/05/30 07:58:42;;;;;;;;;;;;;;;25.55;40.93;99925.00;4331145;32;33776;-91
2023/05/30 08:01:10;;;;;;;;;;;;;;;25.93;39.69;99918.28;4348640;32;33266;-91
2023/05/30 08:03:38;;;;;;;;;;;;;;;25.98;40.59;99918.66;4336536;32;34563;-91
2023/05/30 08:06:07;;;;;;;;;;;;;;;25.93;39.42;99923.69;4335567;32;33447;-91
2023/05/30 08:08:34;;;;;;;;;;;;;;;26.11;39.11;99920.03;4340933;32;35235;-91
2023/05/30 08:11:02;;;;;;;;;;;;;;;25.74;39.83;99927.47;4325063;32;33160;-90
2023/05/30 08:13:30;;;;;;;;;;;;;;;25.87;39.43;99924.34;4321097;32;33150;-91
2023/05/30 08:15:59;;;;;;;;;;;;;;;26.18;38.80;99924.63;4336262;32;33799;-90
2023/05/30 08:18:30;;;;;;;;;;;;;;;25.55;40.19;99930.41;4333689;32;32576;-92
2023/05/30 08:20:57;;;;;;;;;;;;;;;26.03;39.30;99928.97;4335581;32;33576;-91
2023/05/30 08:23:26;;;;;;;;;;;;;;;25.76;39.84;99928.19;4337466;32;32180;-91
2023/05/30 08:25:57;;;;;;;;;;;;;;;26.72;40.02;99925.09;4325636;32;33711;-88
2023/05/30 08:28:25;;;;;;;;;;;;;;;26.23;39.39;99927.69;4325414;32;32400;-90
2023/05/30 08:30:52;;;;;;;;;;;;;;;25.92;41.06;99926.56;4346656;32;34421;-91
2023/05/30 08:33:21;;;;;;;;;;;;;;;26.61;40.27;99925.44;4322706;32;32772;-92
2023/05/30 08:35:49;;;;;;;;;;;;;;;26.99;39.83;99914.97;4335524;32;33235;-91
2023/05/30 08:38:16;;;;;;;;;;;;;;;26.58;39.00;99917.63;4335422;32;32482;-91
2023/05/30 08:40:45;;;;;;;;;;;;;;;26.62;40.35;99919.00;4338051;32;33865;-91
2023/05/30 08:43:13;;;;;;;;;;;;;;;27.05;38.50;99914.28;4340247;32;33626;-90
2023/05/30 08:45:40;;;;;;;;;;;;;;;26.34;40.49;99928.38;4330821;32;33897;-93
2023/05/30 08:48:10;;;;;;;;;;;;;;;26.80;40.10;99922.41;4330838;32;32789;-92
2023/05/30 08:50:38;;;;;;;;;;;;;;;26.83;39.57;99914.97;4331239;32;31741;-91
2023/05/30 08:53:09;;;;;;;;;;;;;;;26.59;40.18;99927.47;4325633;32;34037;-93
2023/05/30 08:55:58;;;;;;;;;;;;;;;26.72;40.35;99933.22;4342053;32;33653;-93
2023/05/30 08:58:39;;;;;;;;;;;;;;;26.89;40.11;99938.66;4355659;32;34141;-91
2023/05/30 09:01:23;;;;;;;;;;;;;;;27.08;39.89;99941.06;4353730;32;33228;-92
2023/05/30 09:03:51;;;;;;;;;;;;;;;26.70;40.00;99945.25;4329613;32;34641;-91
2023/05/30 09:06:19;;;;;;;;;;;;;;;27.00;41.52;99949.16;4347181;32;33840;-92
2023/05/30 09:09:23;;;;;;;;;;;;;;;27.12;40.19;99949.72;4361832;32;31790;-91
2023/05/30 09:11:53;;;;;;;;;;;;;;;27.27;38.72;99954.28;4344427;32;33848;-90
2023/05/30 09:14:21;;;;;;;;;;;;;;;27.16;39.45;99959.22;4347847;32;32419;-92
2023/05/30 09:17:03;;;;;;;;;;;;;;;27.55;38.59;99962.87;4359727;32;33464;-92
2023/05/30 09:19:32;;;;;;;;;;;;;;;27.95;39.57;99973.81;4363925;32;32012;-90
2023/05/30 09:21:59;;;;;;;;;;;;;;;27.41;39.13;99970.87;4359669;32;32822;-91
2023/05/30 09:24:47;;;;;;;;;;;;;;;27.21;38.89;99963.09;4364907;32;33063;-91
2023/05/30 09:27:20;;;;;;;;;;;;;;;26.92;39.24;99960.88;4358004;32;34281;-92
2023/05/30 09:29:52;;;;;;;;;;;;;;;27.14;39.19;99966.62;4347194;32;32628;-92
2023/05/30 09:32:36;;;;;;;;;;;;;;;27.04;39.42;99978.47;4351151;32;33245;-92
2023/05/30 09:35:15;;;;;;;;;;;;;;;27.09;39.08;99972.56;4343536;32;33853;-90
2023/05/30 09:38:17;;;;;;;;;;;;;;;26.67;41.46;99972.66;4332291;32;32972;-93
2023/05/30 09:40:56;;;;;;;;;;;;;;;26.82;40.73;99973.69;4312489;33;33149;-93
2023/05/30 09:43:52;;;;;;;;;;;;;;;27.14;41.24;99972.91;4320268;33;32831;-93
2023/05/30 09:46:55;;;;;;;;;;;;;;;27.28;38.72;99972.22;4327000;32;32554;-92
2023/05/30 09:49:45;;;;;;;;;;;;;;;27.13;39.14;99973.09;4324448;33;33680;-93
2023/05/30 09:52:34;;;;;;;;;;;;;;;26.52;39.37;99969.75;4341774;32;33229;-93
2023/05/30 09:55:06;;;;;;;;;;;;;;;26.50;39.83;99969.09;4326381;32;32833;-93
2023/05/30 09:58:02;;;;;;;;;;;;;;;26.74;40.08;99966.44;4313099;33;32884;-92
2023/05/30 10:00:30;;;;;;;;;;;;;;;26.92;39.13;99968.13;4317979;33;33185;-92
2023/05/30 10:03:26;;;;;;;;;;;;;;;27.23;39.22;99971.88;4335738;32;32095;-93
2023/05/30 10:06:14;;;;;;;;;;;;;;;27.63;38.80;99970.16;4326088;33;33985;-91
2023/05/30 10:09:20;;;;;;;;;;;;;;;27.28;38.82;99968.66;4337609;33;34025;-93
2023/05/30 10:12:03;;;;;;;;;;;;;;;27.64;39.95;99971.00;4343388;32;34910;-91
2023/05/30 10:14:31;;;;;;;;;;;;;;;27.16;38.90;99964.63;4338684;32;32666;-91
2023/05/30 10:17:18;;;;;;;;;;;;;;;26.79;39.64;99966.78;4337921;32;32874;-90
2023/05/30 10:19:50;;;;;;;;;;;;;;;26.96;39.45;99964.06;4322045;32;33441;-91
2023/05/30 10:22:17;;;;;;;;;;;;;;;26.72;38.96;99956.75;4349905;32;33357;-92
2023/05/30 10:25:13;;;;;;;;;;;;;;;27.22;37.69;99951.22;4323313;32;32912;-91
2023/05/30 10:28:01;;;;;;;;;;;;;;;27.42;36.92;99959.00;4342076;32;34277;-91
2023/05/30 10:30:53;;;;;;;;;;;;;;;27.04;37.09;99953.22;4331894;32;33717;-92
2023/05/30 10:33:20;;;;;;;;;;;;;;;27.50;38.25;99964.41;4342164;32;32842;-90
2023/05/30 10:36:23;;;;;;;;;;;;;;;27.78;38.29;99963.03;4335835;32;33126;-91
2023/05/30 10:39:05;;;;;;;;;;;;;;;27.21;39.95;99963.09;4323847;32;32699;-91
2023/05/30 10:41:35;;;;;;;;;;;;;;;26.85;40.30;99953.56;4338139;32;34295;-91
2023/05/30 10:44:32;;;;;;;;;;;;;;;26.76;41.40;99956.25;4364244;32;33717;-91
2023/05/30 10:47:13;;;;;;;;;;;;;;;27.26;40.32;99949.88;4347753;32;32314;-92
2023/05/30 10:49:54;;;;;;;;;;;;;;;27.46;40.18;99955.78;4339857;33;33256;-90
2023/05/30 10:52:52;;;;;;;;;;;;;;;27.12;39.12;99958.69;4327720;32;33560;-92
2023/05/30 10:55:31;;;;;;;;;;;;;;;27.84;39.34;99963.34;4340159;32;32900;-92
2023/05/30 10:58:46;;;;;;;;;;;;;;;27.91;38.97;99953.47;4346223;32;32510;-90
2023/05/30 11:01:27;;;;;;;;;;;;;;;28.52;38.33;99954.56;4341331;32;34612;-91
2023/05/30 11:03:56;;;;;;;;;;;;;;;27.98;36.43;99957.19;4357375;32;32153;-91
2023/05/30 11:06:47;;;;;;;;;;;;;;;28.09;36.76;99945.94;4343342;32;33143;-91
2023/05/30 11:09:59;;;;;;;;;;;;;;;27.79;38.29;99945.72;4345708;32;32623;-91
2023/05/30 11:12:27;;;;;;;;;;;;;;;28.25;37.13;99936.88;4359459;32;33020;-90
2023/05/30 11:14:56;;;;;;;;;;;;;;;28.15;37.62;99938.94;4359840;32;34163;-91
2023/05/30 11:17:36;;;;;;;;;;;;;;;28.29;37.70;99946.34;4341807;32;32923;-91
2023/05/30 11:20:28;;;;;;;;;;;;;;;28.27;37.14;99949.25;4333116;33;31947;-91
2023/05/30 11:23:03;;;;;;;;;;;;;;;27.70;35.74;99943.19;4332937;33;33786;-92
2023/05/30 11:25:32;;;;;;;;;;;;;;;28.43;37.63;99939.34;4347555;33;33941;-92
2023/05/30 11:28:03;;;;;;;;;;;;;;;28.56;37.14;99932.28;4327014;33;33565;-91
2023/05/30 11:30:57;;;;;;;;;;;;;;;28.05;36.75;99933.75;4347573;33;34712;-92
2023/05/30 11:33:36;;;;;;;;;;;;;;;27.79;37.38;99937.56;4390523;32;32881;-93
2023/05/30 11:36:28;;;;;;;;;;;;;;;27.03;38.07;99932.56;4339397;33;33851;-92
2023/05/30 11:39:05;;;;;;;;;;;;;;;27.24;38.56;99935.62;4339796;33;33600;-94
2023/05/30 11:41:56;;;;;;;;;;;;;;;27.64;37.47;99931.16;4343449;32;33137;-94
2023/05/30 11:44:35;;;;;;;;;;;;;;;27.73;36.81;99934.72;4325644;33;32794;-93
2023/05/30 11:51:15;;;;;;;;;;;;;;;27.70;37.52;99935.03;4335245;33;35078;-91
2023/05/30 11:53:44;;;;;;;;;;;;;;;27.99;35.86;99918.16;4304068;33;32498;-92
2023/05/30 11:56:12;;;;;;;;;;;;;;;28.02;36.49;99923.25;4332319;33;32738;-93
2023/05/30 11:59:07;;;;;;;;;;;;;;;28.21;35.80;99914.66;4325458;33;32748;-91
2023/05/30 12:01:34;;;;;;;;;;;;;;;27.77;37.25;99908.91;4335354;33;33301;-91
2023/05/30 12:04:11;;;;;;;;;;;;;;;27.84;37.23;99914.50;4335928;33;32429;-92
2023/05/30 12:06:50;;;;;;;;;;;;;;;28.21;36.92;99906.53;4351197;32;33182;-91
2023/05/30 12:09:20;;;;;;;;;;;;;;;27.76;37.95;99908.06;4332743;32;32779;-92
2023/05/30 12:12:00;;;;;;;;;;;;;;;28.19;37.33;99913.97;4349703;32;34304;-91
2023/05/30 12:15:03;;;;;;;;;;;;;;;27.66;39.03;99915.53;4325369;33;32303;-91
2023/05/30 12:17:44;;;;;;;;;;;;;;;27.79;38.52;99918.59;4337053;33;33957;-92
2023/05/30 12:20:42;;;;;;;;;;;;;;;28.22;37.89;99913.62;4325192;33;33879;-91
2023/05/30 12:23:10;;;;;;;;;;;;;;;28.39;38.84;99911.72;4335909;33;32700;-90
2023/05/30 12:25:39;;;;;;;;;;;;;;;28.48;38.23;99907.06;4324046;33;32334;-92
2023/05/30 12:28:18;;;;;;;;;;;;;;;28.61;38.18;99898.31;4343688;33;33012;-91
2023/05/30 12:31:19;;;;;;;;;;;;;;;28.61;38.67;99892.88;4338740;33;33456;-91
2023/05/30 12:34:01;;;;;;;;;;;;;;;28.75;38.16;99892.94;4337950;32;33277;-92
2023/05/30 12:36:56;;;;;;;;;;;;;;;28.75;37.57;99887.50;4323345;33;31892;-92
2023/05/30 12:39:44;;;;;;;;;;;;;;;28.99;37.02;99882.91;4360178;32;33897;-92
2023/05/30 12:42:47;;;;;;;;;;;;;;;29.11;35.74;99883.31;4351646;32;33633;-92
2023/05/30 12:45:26;;;;;;;;;;;;;;;29.10;36.54;99885.16;4330774;33;32646;-90
2023/05/30 12:47:55;;;;;;;;;;;;;;;29.60;35.79;99880.94;4318937;33;31664;-90
2023/05/30 12:50:22;;;;;;;;;;;;;;;28.97;34.70;99879.53;4323775;33;33671;-92
2023/05/30 12:52:49;;;;;;;;;;;;;;;29.20;33.12;99879.47;4332295;33;32792;-91
2023/05/30 12:55:51;;;;;;;;;;;;;;;29.54;33.67;99882.53;4314370;33;33167;-91
2023/05/30 12:58:23;;;;;;;;;;;;;;;29.68;32.93;99878.13;4322003;33;32306;-92
2023/05/30 13:00:51;;;;;;;;;;;;;;;29.02;34.18;99882.56;4344995;33;33488;-91
2023/05/30 13:03:38;;;;;;;;;;;;;;;28.90;34.87;99876.66;4311029;33;33521;-90
2023/05/30 13:06:07;;;;;;;;;;;;;;;28.64;33.57;99874.34;4308391;33;34419;-90
2023/05/30 13:08:34;;;;;;;;;;;;;;;28.97;33.24;99868.69;4321852;33;32698;-91
2023/05/30 13:11:03;;;;;;;;;;;;;;;29.55;32.17;99862.47;4331326;33;34251;-91
2023/05/30 13:13:34;;;;;;;;;;;;;;;29.51;31.88;99860.28;4332907;33;33196;-92
2023/05/30 13:16:07;;;;;;;;;;;;;;;29.72;32.35;99852.22;4323486;33;33237;-92
2023/05/30 13:18:46;;;;;;;;;;;;;;;29.33;32.31;99857.91;4333375;33;32837;-91